sensor_id;sensor_type;location;lat;lon;timestamp;pressure;altitude;pressure_sealevel;temperature
15453;BMP280;7827;53.594;9.938;2022-07-03T00:01:07;153397.44;;;20.14
15453;BMP280;7827;53.594;9.938;2022-07-03T00:03:35;153401.22;;;20.16
15453;BMP280;7827;53.594;9.938;2022-07-03T00:06:04;153406.25;;;20.18
15453;BMP280;7827;53.594;9.938;2022-07-03T00:08:33;153417.59;;;20.22
15453;BMP280;7827;53.594;9.938;2022-07-03T00:11:03;153406.25;;;20.18
15453;BMP280;7827;53.594;9.938;2022-07-03T00:13:31;153403.72;;;20.17
15453;BMP280;7827;53.594;9.938;2022-07-03T00:16:00;153406.25;;;20.18
15453;BMP280;7827;53.594;9.938;2022-07-03T00:18:28;153399.94;;;20.15
15453;BMP280;7827;53.594;9.938;2022-07-03T00:21:01;153398.69;;;20.15
15453;BMP280;7827;53.594;9.938;2022-07-03T00:23:39;153403.72;;;20.17
15453;BMP280;7827;53.594;9.938;2022-07-03T00:26:13;153406.25;;;20.18
15453;BMP280;7827;53.594;9.938;2022-07-03T00:28:43;153413.81;;;20.21
15453;BMP280;7827;53.594;9.938;2022-07-03T00:31:13;153427.72;;;20.26
15453;BMP280;7827;53.594;9.938;2022-07-03T00:33:42;153422.63;;;20.24
15453;BMP280;7827;53.594;9.938;2022-07-03T00:36:12;153422.63;;;20.24
15453;BMP280;7827;53.594;9.938;2022-07-03T00:38:41;153421.38;;;20.24
15453;BMP280;7827;53.594;9.938;2022-07-03T00:41:26;153425.19;;;20.25
15453;BMP280;7827;53.594;9.938;2022-07-03T00:43:55;153426.41;;;20.26
15453;BMP280;7827;53.594;9.938;2022-07-03T00:46:26;153435.28;;;20.29
15453;BMP280;7827;53.594;9.938;2022-07-03T00:48:58;153454.19;;;20.37
15453;BMP280;7827;53.594;9.938;2022-07-03T00:51:28;153465.56;;;20.41
15453;BMP280;7827;53.594;9.938;2022-07-03T00:53:58;153466.78;;;20.42
15453;BMP280;7827;53.594;9.938;2022-07-03T00:56:30;153483.22;;;20.48
15453;BMP280;7827;53.594;9.938;2022-07-03T00:59:01;153494.56;;;20.52
15453;BMP280;7827;53.594;9.938;2022-07-03T01:01:35;153502.13;;;20.55
15453;BMP280;7827;53.594;9.938;2022-07-03T01:04:23;153498.34;;;20.54
15453;BMP280;7827;53.594;9.938;2022-07-03T01:07:05;153514.75;;;20.60
15453;BMP280;7827;53.594;9.938;2022-07-03T01:09:47;153521.06;;;20.63
15453;BMP280;7827;53.594;9.938;2022-07-03T01:12:37;153517.28;;;20.61
15453;BMP280;7827;53.594;9.938;2022-07-03T01:15:11;153518.53;;;20.62
15453;BMP280;7827;53.594;9.938;2022-07-03T01:17:50;153517.28;;;20.61
15453;BMP280;7827;53.594;9.938;2022-07-03T01:20:27;153514.75;;;20.60
15453;BMP280;7827;53.594;9.938;2022-07-03T01:23:00;153512.19;;;20.59
15453;BMP280;7827;53.594;9.938;2022-07-03T01:25:41;153512.19;;;20.59
15453;BMP280;7827;53.594;9.938;2022-07-03T01:28:13;153505.94;;;20.57
15453;BMP280;7827;53.594;9.938;2022-07-03T01:30:48;153498.34;;;20.54
15453;BMP280;7827;53.594;9.938;2022-07-03T01:33:20;153494.56;;;20.52
15453;BMP280;7827;53.594;9.938;2022-07-03T01:36:03;153507.19;;;20.57
15453;BMP280;7827;53.594;9.938;2022-07-03T01:38:36;153484.47;;;20.49
15453;BMP280;7827;53.594;9.938;2022-07-03T01:41:08;153484.47;;;20.49
15453;BMP280;7827;53.594;9.938;2022-07-03T01:43:42;153479.44;;;20.47
15453;BMP280;7827;53.594;9.938;2022-07-03T01:46:15;153471.88;;;20.44
15453;BMP280;7827;53.594;9.938;2022-07-03T01:48:46;153456.72;;;20.38
15453;BMP280;7827;53.594;9.938;2022-07-03T01:51:16;153474.38;;;20.45
15453;BMP280;7827;53.594;9.938;2022-07-03T01:53:48;153471.88;;;20.44
15453;BMP280;7827;53.594;9.938;2022-07-03T01:56:20;153461.75;;;20.40
15453;BMP280;7827;53.594;9.938;2022-07-03T01:58:49;153471.88;;;20.44
15453;BMP280;7827;53.594;9.938;2022-07-03T02:01:23;153466.78;;;20.42
15453;BMP280;7827;53.594;9.938;2022-07-03T02:04:04;153463.00;;;20.40
15453;BMP280;7827;53.594;9.938;2022-07-03T02:06:40;153452.97;;;20.36
15453;BMP280;7827;53.594;9.938;2022-07-03T02:09:12;153444.09;;;20.33
15453;BMP280;7827;53.594;9.938;2022-07-03T02:12:10;153446.63;;;20.34
15453;BMP280;7827;53.594;9.938;2022-07-03T02:14:43;153431.50;;;20.28
15453;BMP280;7827;53.594;9.938;2022-07-03T02:17:18;153440.31;;;20.31
15453;BMP280;7827;53.594;9.938;2022-07-03T02:19:54;153428.94;;;20.27
15453;BMP280;7827;53.594;9.938;2022-07-03T02:22:30;153423.94;;;20.25
15453;BMP280;7827;53.594;9.938;2022-07-03T02:25:04;153431.50;;;20.28
15453;BMP280;7827;53.594;9.938;2022-07-03T02:27:44;153418.84;;;20.23
15453;BMP280;7827;53.594;9.938;2022-07-03T02:30:16;153402.47;;;20.16
15453;BMP280;7827;53.594;9.938;2022-07-03T02:32:50;153396.16;;;20.14
15453;BMP280;7827;53.594;9.938;2022-07-03T02:35:25;153401.22;;;20.16
15453;BMP280;7827;53.594;9.938;2022-07-03T02:38:04;153401.22;;;20.16
15453;BMP280;7827;53.594;9.938;2022-07-03T02:40:39;153399.94;;;20.15
15453;BMP280;7827;53.594;9.938;2022-07-03T02:43:19;153388.59;;;20.11
15453;BMP280;7827;53.594;9.938;2022-07-03T02:46:02;153383.56;;;20.09
15453;BMP280;7827;53.594;9.938;2022-07-03T02:49:01;153378.53;;;20.07
15453;BMP280;7827;53.594;9.938;2022-07-03T02:51:36;153365.88;;;20.02
15453;BMP280;7827;53.594;9.938;2022-07-03T02:54:13;153348.28;;;19.95
15453;BMP280;7827;53.594;9.938;2022-07-03T02:56:59;153339.41;;;19.92
15453;BMP280;7827;53.594;9.938;2022-07-03T02:59:45;153339.41;;;19.92
15453;BMP280;7827;53.594;9.938;2022-07-03T03:05:37;153323.00;;;19.85
15453;BMP280;7827;53.594;9.938;2022-07-03T03:08:12;153331.84;;;19.89
15453;BMP280;7827;53.594;9.938;2022-07-03T03:10:47;153323.00;;;19.85
15453;BMP280;7827;53.594;9.938;2022-07-03T03:13:18;153324.22;;;19.86
15453;BMP280;7827;53.594;9.938;2022-07-03T03:16:07;153325.47;;;19.86
15453;BMP280;7827;53.594;9.938;2022-07-03T03:18:38;153321.69;;;19.85
15453;BMP280;7827;53.594;9.938;2022-07-03T03:21:10;153325.47;;;19.86
15453;BMP280;7827;53.594;9.938;2022-07-03T03:23:44;153325.47;;;19.86
15453;BMP280;7827;53.594;9.938;2022-07-03T03:26:18;153334.38;;;19.90
15453;BMP280;7827;53.594;9.938;2022-07-03T03:28:47;153328.06;;;19.87
15453;BMP280;7827;53.594;9.938;2022-07-03T03:31:17;153328.06;;;19.87
15453;BMP280;7827;53.594;9.938;2022-07-03T03:33:48;153328.06;;;19.87
15453;BMP280;7827;53.594;9.938;2022-07-03T03:36:19;153335.63;;;19.90
15453;BMP280;7827;53.594;9.938;2022-07-03T03:38:48;153323.00;;;19.85
15453;BMP280;7827;53.594;9.938;2022-07-03T03:41:17;153324.22;;;19.86
15453;BMP280;7827;53.594;9.938;2022-07-03T03:43:45;153335.63;;;19.90
15453;BMP280;7827;53.594;9.938;2022-07-03T03:46:14;153333.09;;;19.89
15453;BMP280;7827;53.594;9.938;2022-07-03T03:48:44;153320.44;;;19.84
15453;BMP280;7827;53.594;9.938;2022-07-03T03:51:13;153320.44;;;19.84
15453;BMP280;7827;53.594;9.938;2022-07-03T03:53:42;153317.91;;;19.83
15453;BMP280;7827;53.594;9.938;2022-07-03T03:56:17;153328.06;;;19.87
15453;BMP280;7827;53.594;9.938;2022-07-03T03:58:45;153334.38;;;19.90
15453;BMP280;7827;53.594;9.938;2022-07-03T04:01:13;153325.47;;;19.86
15453;BMP280;7827;53.594;9.938;2022-07-03T04:03:43;153333.09;;;19.89
15453;BMP280;7827;53.594;9.938;2022-07-03T04:06:11;153338.16;;;19.91
15453;BMP280;7827;53.594;9.938;2022-07-03T04:08:40;153360.88;;;20.00
15453;BMP280;7827;53.594;9.938;2022-07-03T04:11:08;153406.25;;;20.18
15453;BMP280;7827;53.594;9.938;2022-07-03T04:13:36;153492.03;;;20.52
15453;BMP280;7827;53.594;9.938;2022-07-03T04:16:05;153609.41;;;20.98
15453;BMP280;7827;53.594;9.938;2022-07-03T04:18:33;153754.63;;;21.54
15453;BMP280;7827;53.594;9.938;2022-07-03T04:21:03;153870.75;;;22.00
15453;BMP280;7827;53.594;9.938;2022-07-03T04:23:31;153989.53;;;22.47
15453;BMP280;7827;53.594;9.938;2022-07-03T04:26:04;154072.91;;;22.79
15453;BMP280;7827;53.594;9.938;2022-07-03T04:28:32;154163.97;;;23.15
15453;BMP280;7827;53.594;9.938;2022-07-03T04:31:01;154251.16;;;23.49
15453;BMP280;7827;53.594;9.938;2022-07-03T04:33:29;154301.78;;;23.69
15453;BMP280;7827;53.594;9.938;2022-07-03T04:35:57;154343.50;;;23.85
15453;BMP280;7827;53.594;9.938;2022-07-03T04:38:27;154353.56;;;23.89
15453;BMP280;7827;53.594;9.938;2022-07-03T04:40:55;154343.50;;;23.85
15453;BMP280;7827;53.594;9.938;2022-07-03T04:43:24;154361.19;;;23.92
15453;BMP280;7827;53.594;9.938;2022-07-03T04:45:52;154345.97;;;23.86
15453;BMP280;7827;53.594;9.938;2022-07-03T04:48:21;154318.19;;;23.75
15453;BMP280;7827;53.594;9.938;2022-07-03T04:50:49;154268.84;;;23.56
15453;BMP280;7827;53.594;9.938;2022-07-03T04:53:18;154206.91;;;23.32
15453;BMP280;7827;53.594;9.938;2022-07-03T04:55:48;154126.06;;;23.00
15453;BMP280;7827;53.594;9.938;2022-07-03T04:58:17;154088.09;;;22.85
15453;BMP280;7827;53.594;9.938;2022-07-03T05:00:45;154114.69;;;22.96
15453;BMP280;7827;53.594;9.938;2022-07-03T05:03:14;154138.69;;;23.05
15453;BMP280;7827;53.594;9.938;2022-07-03T05:05:42;154153.84;;;23.11
15453;BMP280;7827;53.594;9.938;2022-07-03T05:08:10;154128.56;;;23.01
15453;BMP280;7827;53.594;9.938;2022-07-03T05:10:38;154086.81;;;22.85
15453;BMP280;7827;53.594;9.938;2022-07-03T05:13:08;154050.16;;;22.70
15453;BMP280;7827;53.594;9.938;2022-07-03T05:15:36;154046.38;;;22.69
15453;BMP280;7827;53.594;9.938;2022-07-03T05:18:05;154070.41;;;22.78
15453;BMP280;7827;53.594;9.938;2022-07-03T05:20:33;154098.19;;;22.89
15453;BMP280;7827;53.594;9.938;2022-07-03T05:23:02;154093.16;;;22.87
15453;BMP280;7827;53.594;9.938;2022-07-03T05:25:31;154103.25;;;22.91
15453;BMP280;7827;53.594;9.938;2022-07-03T05:28:01;154126.06;;;23.00
15453;BMP280;7827;53.594;9.938;2022-07-03T05:30:31;154113.38;;;22.95
15453;BMP280;7827;53.594;9.938;2022-07-03T05:32:59;154120.97;;;22.98
15453;BMP280;7827;53.594;9.938;2022-07-03T05:35:27;154158.88;;;23.13
15453;BMP280;7827;53.594;9.938;2022-07-03T05:37:56;154180.38;;;23.21
15453;BMP280;7827;53.594;9.938;2022-07-03T05:40:24;154184.16;;;23.23
15453;BMP280;7827;53.594;9.938;2022-07-03T05:42:53;154181.66;;;23.22
15453;BMP280;7827;53.594;9.938;2022-07-03T05:45:21;154225.84;;;23.39
15453;BMP280;7827;53.594;9.938;2022-07-03T05:47:51;154247.34;;;23.48
15453;BMP280;7827;53.594;9.938;2022-07-03T05:50:19;154281.47;;;23.61
15453;BMP280;7827;53.594;9.938;2022-07-03T05:52:47;154325.78;;;23.78
15453;BMP280;7827;53.594;9.938;2022-07-03T05:55:16;154323.22;;;23.77
15453;BMP280;7827;53.594;9.938;2022-07-03T05:57:44;154325.78;;;23.78
15453;BMP280;7827;53.594;9.938;2022-07-03T06:00:13;154359.91;;;23.92
15453;BMP280;7827;53.594;9.938;2022-07-03T06:02:42;154361.19;;;23.92
15453;BMP280;7827;53.594;9.938;2022-07-03T06:05:12;154354.88;;;23.90
15453;BMP280;7827;53.594;9.938;2022-07-03T06:07:40;154383.97;;;24.01
15453;BMP280;7827;53.594;9.938;2022-07-03T06:10:08;154411.75;;;24.12
15453;BMP280;7827;53.594;9.938;2022-07-03T06:12:37;154425.69;;;24.17
15453;BMP280;7827;53.594;9.938;2022-07-03T06:15:06;154426.94;;;24.18
15453;BMP280;7827;53.594;9.938;2022-07-03T06:17:34;154431.97;;;24.20
15453;BMP280;7827;53.594;9.938;2022-07-03T06:20:05;154458.56;;;24.30
15453;BMP280;7827;53.594;9.938;2022-07-03T06:22:35;154440.84;;;24.23
15453;BMP280;7827;53.594;9.938;2022-07-03T06:25:05;154440.84;;;24.23
15453;BMP280;7827;53.594;9.938;2022-07-03T06:27:34;154447.19;;;24.26
15453;BMP280;7827;53.594;9.938;2022-07-03T06:30:04;154404.16;;;24.09
15453;BMP280;7827;53.594;9.938;2022-07-03T06:32:32;154394.03;;;24.05
15453;BMP280;7827;53.594;9.938;2022-07-03T06:35:01;154391.53;;;24.04
15453;BMP280;7827;53.594;9.938;2022-07-03T06:37:29;154420.59;;;24.15
15453;BMP280;7827;53.594;9.938;2022-07-03T06:39:59;154447.19;;;24.26
15453;BMP280;7827;53.594;9.938;2022-07-03T06:42:27;154488.97;;;24.42
15453;BMP280;7827;53.594;9.938;2022-07-03T06:44:57;154476.28;;;24.37
15453;BMP280;7827;53.594;9.938;2022-07-03T06:47:25;154467.44;;;24.34
15453;BMP280;7827;53.594;9.938;2022-07-03T06:49:53;154490.19;;;24.43
15453;BMP280;7827;53.594;9.938;2022-07-03T06:52:22;154515.50;;;24.52
15453;BMP280;7827;53.594;9.938;2022-07-03T06:54:50;154470.00;;;24.35
15453;BMP280;7827;53.594;9.938;2022-07-03T06:57:20;154461.06;;;24.31
15453;BMP280;7827;53.594;9.938;2022-07-03T06:59:48;154492.75;;;24.44
15453;BMP280;7827;53.594;9.938;2022-07-03T07:02:17;154519.31;;;24.54
15453;BMP280;7827;53.594;9.938;2022-07-03T07:04:45;154518.00;;;24.53
15453;BMP280;7827;53.594;9.938;2022-07-03T07:07:13;154542.06;;;24.63
15453;BMP280;7827;53.594;9.938;2022-07-03T07:09:42;154549.66;;;24.66
15453;BMP280;7827;53.594;9.938;2022-07-03T07:12:11;154543.31;;;24.63
15453;BMP280;7827;53.594;9.938;2022-07-03T07:14:41;154535.72;;;24.60
15453;BMP280;7827;53.594;9.938;2022-07-03T07:17:10;154552.19;;;24.67
15453;BMP280;7827;53.594;9.938;2022-07-03T07:19:38;154552.19;;;24.67
15453;BMP280;7827;53.594;9.938;2022-07-03T07:22:07;154583.81;;;24.79
15453;BMP280;7827;53.594;9.938;2022-07-03T07:24:35;154600.22;;;24.86
15453;BMP280;7827;53.594;9.938;2022-07-03T07:27:04;154572.41;;;24.75
15453;BMP280;7827;53.594;9.938;2022-07-03T07:29:33;154576.22;;;24.76
15453;BMP280;7827;53.594;9.938;2022-07-03T07:32:03;154598.97;;;24.85
15453;BMP280;7827;53.594;9.938;2022-07-03T07:34:31;154624.28;;;24.95
15453;BMP280;7827;53.594;9.938;2022-07-03T07:37:00;154639.53;;;25.01
15453;BMP280;7827;53.594;9.938;2022-07-03T07:39:28;154655.94;;;25.07
15453;BMP280;7827;53.594;9.938;2022-07-03T07:41:56;154636.97;;;25.00
15453;BMP280;7827;53.594;9.938;2022-07-03T07:44:24;154645.84;;;25.03
15453;BMP280;7827;53.594;9.938;2022-07-03T07:46:53;154642.06;;;25.02
15453;BMP280;7827;53.594;9.938;2022-07-03T07:49:22;154658.50;;;25.08
15453;BMP280;7827;53.594;9.938;2022-07-03T07:51:51;154674.91;;;25.15
15453;BMP280;7827;53.594;9.938;2022-07-03T07:54:19;154667.31;;;25.12
15453;BMP280;7827;53.594;9.938;2022-07-03T07:56:47;154635.72;;;25.00
15453;BMP280;7827;53.594;9.938;2022-07-03T07:59:15;154631.88;;;24.98
15453;BMP280;7827;53.594;9.938;2022-07-03T08:01:44;154642.06;;;25.02
15453;BMP280;7827;53.594;9.938;2022-07-03T08:04:31;154680.00;;;25.17
15453;BMP280;7827;53.594;9.938;2022-07-03T08:07:17;154691.41;;;25.21
15453;BMP280;7827;53.594;9.938;2022-07-03T08:09:46;154728.09;;;25.36
15453;BMP280;7827;53.594;9.938;2022-07-03T08:12:14;154720.47;;;25.33
15453;BMP280;7827;53.594;9.938;2022-07-03T08:14:42;154668.63;;;25.12
15453;BMP280;7827;53.594;9.938;2022-07-03T08:17:11;154654.69;;;25.07
15453;BMP280;7827;53.594;9.938;2022-07-03T08:19:40;154680.00;;;25.17
15453;BMP280;7827;53.594;9.938;2022-07-03T08:22:09;154714.16;;;25.30
15453;BMP280;7827;53.594;9.938;2022-07-03T08:24:37;154710.38;;;25.29
15453;BMP280;7827;53.594;9.938;2022-07-03T08:27:12;154704.03;;;25.26
15453;BMP280;7827;53.594;9.938;2022-07-03T08:29:40;154697.69;;;25.24
15453;BMP280;7827;53.594;9.938;2022-07-03T08:32:10;154705.28;;;25.27
15453;BMP280;7827;53.594;9.938;2022-07-03T08:34:39;154677.47;;;25.16
15453;BMP280;7827;53.594;9.938;2022-07-03T08:37:09;154677.47;;;25.16
15453;BMP280;7827;53.594;9.938;2022-07-03T08:39:37;154676.22;;;25.15
15453;BMP280;7827;53.594;9.938;2022-07-03T08:42:07;154725.56;;;25.35
15453;BMP280;7827;53.594;9.938;2022-07-03T08:44:43;154809.13;;;25.67
15453;BMP280;7827;53.594;9.938;2022-07-03T08:47:13;154797.69;;;25.63
15453;BMP280;7827;53.594;9.938;2022-07-03T08:49:44;154842.03;;;25.80
15453;BMP280;7827;53.594;9.938;2022-07-03T08:52:14;154885.03;;;25.97
15453;BMP280;7827;53.594;9.938;2022-07-03T08:54:43;154864.81;;;25.89
15453;BMP280;7827;53.594;9.938;2022-07-03T08:57:12;154793.88;;;25.61
15453;BMP280;7827;53.594;9.938;2022-07-03T08:59:41;154739.50;;;25.40
15453;BMP280;7827;53.594;9.938;2022-07-03T09:02:10;154702.78;;;25.26
15453;BMP280;7827;53.594;9.938;2022-07-03T09:04:40;154685.06;;;25.19
15453;BMP280;7827;53.594;9.938;2022-07-03T09:07:13;154642.06;;;25.02
15453;BMP280;7827;53.594;9.938;2022-07-03T09:09:42;154624.28;;;24.95
15453;BMP280;7827;53.594;9.938;2022-07-03T09:12:10;154629.34;;;24.97
15453;BMP280;7827;53.594;9.938;2022-07-03T09:14:39;154629.34;;;24.97
15453;BMP280;7827;53.594;9.938;2022-07-03T09:17:09;154614.16;;;24.91
15453;BMP280;7827;53.594;9.938;2022-07-03T09:19:42;154596.44;;;24.84
15453;BMP280;7827;53.594;9.938;2022-07-03T09:22:22;154556.00;;;24.68
15453;BMP280;7827;53.594;9.938;2022-07-03T09:24:53;154549.66;;;24.66
15453;BMP280;7827;53.594;9.938;2022-07-03T09:27:23;154543.31;;;24.63
15453;BMP280;7827;53.594;9.938;2022-07-03T09:29:58;154542.06;;;24.63
15453;BMP280;7827;53.594;9.938;2022-07-03T09:32:32;154544.59;;;24.64
15453;BMP280;7827;53.594;9.938;2022-07-03T09:35:17;154559.78;;;24.70
15453;BMP280;7827;53.594;9.938;2022-07-03T09:37:53;154558.50;;;24.69
15453;BMP280;7827;53.594;9.938;2022-07-03T09:40:24;154528.13;;;24.57
15453;BMP280;7827;53.594;9.938;2022-07-03T09:43:02;154535.72;;;24.60
15453;BMP280;7827;53.594;9.938;2022-07-03T09:45:50;154520.56;;;24.54
15453;BMP280;7827;53.594;9.938;2022-07-03T09:48:30;154506.63;;;24.49
15453;BMP280;7827;53.594;9.938;2022-07-03T09:51:19;154518.00;;;24.53
15453;BMP280;7827;53.594;9.938;2022-07-03T09:53:55;154544.59;;;24.64
15453;BMP280;7827;53.594;9.938;2022-07-03T09:56:27;154574.97;;;24.76
15453;BMP280;7827;53.594;9.938;2022-07-03T09:59:01;154640.75;;;25.01
15453;BMP280;7827;53.594;9.938;2022-07-03T10:01:30;154688.84;;;25.20
15453;BMP280;7827;53.594;9.938;2022-07-03T10:04:17;154731.91;;;25.37
15453;BMP280;7827;53.594;9.938;2022-07-03T10:06:48;154750.88;;;25.45
15453;BMP280;7827;53.594;9.938;2022-07-03T10:09:20;154781.25;;;25.56
15453;BMP280;7827;53.594;9.938;2022-07-03T10:11:49;154809.13;;;25.67
15453;BMP280;7827;53.594;9.938;2022-07-03T10:14:19;154812.91;;;25.69
15453;BMP280;7827;53.594;9.938;2022-07-03T10:16:49;154828.09;;;25.75
15453;BMP280;7827;53.594;9.938;2022-07-03T10:19:20;154828.09;;;25.75
15453;BMP280;7827;53.594;9.938;2022-07-03T10:21:54;154852.16;;;25.84
15453;BMP280;7827;53.594;9.938;2022-07-03T10:24:26;154834.44;;;25.77
15453;BMP280;7827;53.594;9.938;2022-07-03T10:26:56;154843.28;;;25.81
15453;BMP280;7827;53.594;9.938;2022-07-03T10:29:27;154863.56;;;25.89
15453;BMP280;7827;53.594;9.938;2022-07-03T10:31:57;154901.53;;;26.03
15453;BMP280;7827;53.594;9.938;2022-07-03T10:34:27;154912.91;;;26.08
15453;BMP280;7827;53.594;9.938;2022-07-03T10:37:00;154910.38;;;26.07
15453;BMP280;7827;53.594;9.938;2022-07-03T10:39:48;154893.94;;;26.00
15453;BMP280;7827;53.594;9.938;2022-07-03T10:42:29;154935.69;;;26.17
15453;BMP280;7827;53.594;9.938;2022-07-03T10:45:16;155005.41;;;26.44
15453;BMP280;7827;53.594;9.938;2022-07-03T10:47:47;155049.69;;;26.61
15453;BMP280;7827;53.594;9.938;2022-07-03T10:50:18;155072.47;;;26.70
15453;BMP280;7827;53.594;9.938;2022-07-03T10:52:48;155085.16;;;26.75
15453;BMP280;7827;53.594;9.938;2022-07-03T10:55:18;155062.38;;;26.66
15453;BMP280;7827;53.594;9.938;2022-07-03T10:58:08;155057.28;;;26.64
15453;BMP280;7827;53.594;9.938;2022-07-03T11:00:55;155047.19;;;26.60
15453;BMP280;7827;53.594;9.938;2022-07-03T11:03:59;155063.63;;;26.67
15453;BMP280;7827;53.594;9.938;2022-07-03T11:07:10;155100.38;;;26.81
15453;BMP280;7827;53.594;9.938;2022-07-03T11:09:38;155085.16;;;26.75
15453;BMP280;7827;53.594;9.938;2022-07-03T11:12:08;155059.81;;;26.65
15453;BMP280;7827;53.594;9.938;2022-07-03T11:14:36;155035.78;;;26.56
15453;BMP280;7827;53.594;9.938;2022-07-03T11:17:18;154961.03;;;26.27
15453;BMP280;7827;53.594;9.938;2022-07-03T11:19:49;154898.97;;;26.02
15453;BMP280;7827;53.594;9.938;2022-07-03T11:22:44;154907.81;;;26.06
15453;BMP280;7827;53.594;9.938;2022-07-03T11:25:17;154931.91;;;26.15
15453;BMP280;7827;53.594;9.938;2022-07-03T11:27:47;154917.97;;;26.10
15453;BMP280;7827;53.594;9.938;2022-07-03T11:30:16;154885.03;;;25.97
15453;BMP280;7827;53.594;9.938;2022-07-03T11:32:52;154867.34;;;25.90
15453;BMP280;7827;53.594;9.938;2022-07-03T11:35:51;154842.03;;;25.80
15453;BMP280;7827;53.594;9.938;2022-07-03T11:38:25;154812.91;;;25.69
15453;BMP280;7827;53.594;9.938;2022-07-03T11:40:57;154835.69;;;25.78
15453;BMP280;7827;53.594;9.938;2022-07-03T11:43:28;154883.78;;;25.97
15453;BMP280;7827;53.594;9.938;2022-07-03T11:45:56;154935.69;;;26.17
15453;BMP280;7827;53.594;9.938;2022-07-03T11:48:26;154972.47;;;26.31
15453;BMP280;7827;53.594;9.938;2022-07-03T11:51:00;154971.19;;;26.31
15453;BMP280;7827;53.594;9.938;2022-07-03T11:53:32;154971.19;;;26.31
15453;BMP280;7827;53.594;9.938;2022-07-03T11:56:02;155015.50;;;26.48
15453;BMP280;7827;53.594;9.938;2022-07-03T11:58:44;155082.63;;;26.74
15453;BMP280;7827;53.594;9.938;2022-07-03T12:01:30;155118.09;;;26.88
15453;BMP280;7827;53.594;9.938;2022-07-03T12:04:08;155144.75;;;26.99
15453;BMP280;7827;53.594;9.938;2022-07-03T12:06:39;155191.59;;;27.17
15453;BMP280;7827;53.594;9.938;2022-07-03T12:09:20;155215.69;;;27.26
15453;BMP280;7827;53.594;9.938;2022-07-03T12:12:00;155252.38;;;27.41
15453;BMP280;7827;53.594;9.938;2022-07-03T12:14:45;155286.69;;;27.54
15453;BMP280;7827;53.594;9.938;2022-07-03T12:17:17;155299.34;;;27.59
15453;BMP280;7827;53.594;9.938;2022-07-03T12:19:47;155262.53;;;27.45
15453;BMP280;7827;53.594;9.938;2022-07-03T12:22:27;155271.38;;;27.48
15453;BMP280;7827;53.594;9.938;2022-07-03T12:25:00;155296.78;;;27.58
15453;BMP280;7827;53.594;9.938;2022-07-03T12:27:29;155304.38;;;27.61
15453;BMP280;7827;53.594;9.938;2022-07-03T12:30:00;155294.28;;;27.57
15453;BMP280;7827;53.594;9.938;2022-07-03T12:32:29;155319.59;;;27.67
15453;BMP280;7827;53.594;9.938;2022-07-03T12:34:58;155358.91;;;27.82
15453;BMP280;7827;53.594;9.938;2022-07-03T12:37:32;155353.78;;;27.80
15453;BMP280;7827;53.594;9.938;2022-07-03T12:40:01;155338.59;;;27.74
15453;BMP280;7827;53.594;9.938;2022-07-03T12:42:30;155299.34;;;27.59
15453;BMP280;7827;53.594;9.938;2022-07-03T12:45:02;155306.94;;;27.62
15453;BMP280;7827;53.594;9.938;2022-07-03T12:47:31;155277.78;;;27.50
15453;BMP280;7827;53.594;9.938;2022-07-03T12:50:02;155277.78;;;27.50
15453;BMP280;7827;53.594;9.938;2022-07-03T12:52:33;155286.69;;;27.54
15453;BMP280;7827;53.594;9.938;2022-07-03T12:55:02;155265.09;;;27.46
15453;BMP280;7827;53.594;9.938;2022-07-03T12:57:31;155243.53;;;27.37
15453;BMP280;7827;53.594;9.938;2022-07-03T13:00:18;155249.88;;;27.40
15453;BMP280;7827;53.594;9.938;2022-07-03T13:02:49;155290.47;;;27.55
15453;BMP280;7827;53.594;9.938;2022-07-03T13:05:20;155295.53;;;27.57
15453;BMP280;7827;53.594;9.938;2022-07-03T13:07:51;155263.78;;;27.45
15453;BMP280;7827;53.594;9.938;2022-07-03T13:10:21;155265.09;;;27.46
15453;BMP280;7827;53.594;9.938;2022-07-03T13:12:53;155260.00;;;27.44
15453;BMP280;7827;53.594;9.938;2022-07-03T13:15:28;155256.19;;;27.42
15453;BMP280;7827;53.594;9.938;2022-07-03T13:17:58;155279.03;;;27.51
15453;BMP280;7827;53.594;9.938;2022-07-03T13:20:29;155262.53;;;27.45
15453;BMP280;7827;53.594;9.938;2022-07-03T13:22:59;155282.88;;;27.52
15453;BMP280;7827;53.594;9.938;2022-07-03T13:25:29;155304.38;;;27.61
15453;BMP280;7827;53.594;9.938;2022-07-03T13:28:06;155305.69;;;27.61
15453;BMP280;7827;53.594;9.938;2022-07-03T13:30:37;155272.69;;;27.48
15453;BMP280;7827;53.594;9.938;2022-07-03T13:33:07;155317.09;;;27.66
15453;BMP280;7827;53.594;9.938;2022-07-03T13:35:36;155363.94;;;27.84
15453;BMP280;7827;53.594;9.938;2022-07-03T13:38:04;155366.50;;;27.85
15453;BMP280;7827;53.594;9.938;2022-07-03T13:40:33;155376.66;;;27.89
15453;BMP280;7827;53.594;9.938;2022-07-03T13:43:03;155386.75;;;27.93
15453;BMP280;7827;53.594;9.938;2022-07-03T13:45:31;155424.78;;;28.08
15453;BMP280;7827;53.594;9.938;2022-07-03T13:48:01;155403.25;;;27.99
15453;BMP280;7827;53.594;9.938;2022-07-03T13:50:29;155409.56;;;28.02
15453;BMP280;7827;53.594;9.938;2022-07-03T13:52:58;155432.41;;;28.11
15453;BMP280;7827;53.594;9.938;2022-07-03T13:55:26;155432.41;;;28.11
15453;BMP280;7827;53.594;9.938;2022-07-03T13:57:56;155427.31;;;28.09
15453;BMP280;7827;53.594;9.938;2022-07-03T14:00:25;155447.63;;;28.17
15453;BMP280;7827;53.594;9.938;2022-07-03T14:02:54;155447.63;;;28.17
15453;BMP280;7827;53.594;9.938;2022-07-03T14:05:23;155442.56;;;28.15
15453;BMP280;7827;53.594;9.938;2022-07-03T14:07:53;155457.78;;;28.21
15453;BMP280;7827;53.594;9.938;2022-07-03T14:10:22;155431.16;;;28.10
15453;BMP280;7827;53.594;9.938;2022-07-03T14:12:52;155433.72;;;28.11
15453;BMP280;7827;53.594;9.938;2022-07-03T14:15:20;155410.88;;;28.02
15453;BMP280;7827;53.594;9.938;2022-07-03T14:17:49;155419.72;;;28.06
15453;BMP280;7827;53.594;9.938;2022-07-03T14:20:17;155426.06;;;28.08
15453;BMP280;7827;53.594;9.938;2022-07-03T14:22:47;155429.91;;;28.10
15453;BMP280;7827;53.594;9.938;2022-07-03T14:25:17;155488.19;;;28.33
15453;BMP280;7827;53.594;9.938;2022-07-03T14:27:45;155516.09;;;28.44
15453;BMP280;7827;53.594;9.938;2022-07-03T14:30:28;155550.34;;;28.57
15453;BMP280;7827;53.594;9.938;2022-07-03T14:33:14;155560.50;;;28.61
15453;BMP280;7827;53.594;9.938;2022-07-03T14:35:42;155596.00;;;28.75
15453;BMP280;7827;53.594;9.938;2022-07-03T14:38:12;155592.22;;;28.73
15453;BMP280;7827;53.594;9.938;2022-07-03T14:40:40;155589.66;;;28.72